sensor_id;sensor_type;location;lat;lon;timestamp;P1;durP1;ratioP1;P2;durP2;ratioP2
60098;SDS011;62818;49.394;8.686;2023-06-05T00:00:28;2.67;;;1.37;;
60098;SDS011;62818;49.394;8.686;2023-06-05T00:01:29;1.60;;;1.30;;
60098;SDS011;62818;49.394;8.686;2023-06-05T00:02:34;2.03;;;1.30;;
60098;SDS011;62818;49.394;8.686;2023-06-05T00:03:34;1.80;;;1.30;;
60098;SDS011;62818;49.394;8.686;2023-06-05T00:04:37;5.70;;;1.50;;
60098;SDS011;62818;49.394;8.686;2023-06-05T00:05:39;2.00;;;1.25;;
60098;SDS011;62818;49.394;8.686;2023-06-05T00:06:40;1.85;;;1.15;;
60098;SDS011;62818;49.394;8.686;2023-06-05T00:07:40;1.97;;;1.30;;
60098;SDS011;62818;49.394;8.686;2023-06-05T00:08:41;3.10;;;1.70;;
60098;SDS011;62818;49.394;8.686;2023-06-05T00:09:42;5.37;;;1.30;;
60098;SDS011;62818;49.394;8.686;2023-06-05T00:10:42;2.07;;;1.30;;
60098;SDS011;62818;49.394;8.686;2023-06-05T00:11:42;3.40;;;1.17;;
60098;SDS011;62818;49.394;8.686;2023-06-05T00:12:43;3.60;;;1.37;;
60098;SDS011;62818;49.394;8.686;2023-06-05T00:13:44;2.45;;;1.35;;
60098;SDS011;62818;49.394;8.686;2023-06-05T00:14:46;4.65;;;1.70;;
60098;SDS011;62818;49.394;8.686;2023-06-05T00:15:46;2.93;;;1.30;;
60098;SDS011;62818;49.394;8.686;2023-06-05T00:16:47;2.13;;;1.30;;
60098;SDS011;62818;49.394;8.686;2023-06-05T00:17:50;3.50;;;1.50;;
60098;SDS011;62818;49.394;8.686;2023-06-05T00:18:50;1.40;;;1.23;;
60098;SDS011;62818;49.394;8.686;2023-06-05T00:19:51;2.27;;;1.50;;
60098;SDS011;62818;49.394;8.686;2023-06-05T00:20:51;2.97;;;1.42;;
60098;SDS011;62818;49.394;8.686;2023-06-05T00:21:52;3.33;;;1.43;;
60098;SDS011;62818;49.394;8.686;2023-06-05T00:22:52;5.10;;;1.37;;
60098;SDS011;62818;49.394;8.686;2023-06-05T00:23:55;5.93;;;1.17;;
60098;SDS011;62818;49.394;8.686;2023-06-05T00:24:56;5.30;;;1.52;;
60098;SDS011;62818;49.394;8.686;2023-06-05T00:25:57;5.38;;;1.63;;
60098;SDS011;62818;49.394;8.686;2023-06-05T00:26:57;2.30;;;1.25;;
60098;SDS011;62818;49.394;8.686;2023-06-05T00:27:58;2.40;;;1.47;;
60098;SDS011;62818;49.394;8.686;2023-06-05T00:28:58;3.27;;;1.50;;
60098;SDS011;62818;49.394;8.686;2023-06-05T00:29:59;1.70;;;1.30;;
60098;SDS011;62818;49.394;8.686;2023-06-05T00:31:00;4.67;;;1.30;;
60098;SDS011;62818;49.394;8.686;2023-06-05T00:32:01;3.90;;;1.30;;
60098;SDS011;62818;49.394;8.686;2023-06-05T00:33:02;7.53;;;1.33;;
60098;SDS011;62818;49.394;8.686;2023-06-05T00:34:02;4.53;;;1.53;;
60098;SDS011;62818;49.394;8.686;2023-06-05T00:35:03;4.97;;;1.47;;
60098;SDS011;62818;49.394;8.686;2023-06-05T00:37:05;5.15;;;1.50;;
60098;SDS011;62818;49.394;8.686;2023-06-05T00:38:06;1.45;;;0.95;;
60098;SDS011;62818;49.394;8.686;2023-06-05T00:39:07;3.97;;;1.50;;
60098;SDS011;62818;49.394;8.686;2023-06-05T00:41:09;2.75;;;1.50;;
60098;SDS011;62818;49.394;8.686;2023-06-05T00:42:10;6.53;;;1.80;;
60098;SDS011;62818;49.394;8.686;2023-06-05T00:43:10;4.30;;;1.23;;
60098;SDS011;62818;49.394;8.686;2023-06-05T00:44:11;8.83;;;1.50;;
60098;SDS011;62818;49.394;8.686;2023-06-05T00:45:11;2.83;;;1.50;;
60098;SDS011;62818;49.394;8.686;2023-06-05T00:46:12;2.27;;;1.20;;
60098;SDS011;62818;49.394;8.686;2023-06-05T00:47:14;4.80;;;1.35;;
60098;SDS011;62818;49.394;8.686;2023-06-05T00:48:15;5.75;;;1.20;;
60098;SDS011;62818;49.394;8.686;2023-06-05T00:49:16;8.53;;;1.20;;
60098;SDS011;62818;49.394;8.686;2023-06-05T00:50:18;1.65;;;1.50;;
60098;SDS011;62818;49.394;8.686;2023-06-05T00:51:21;4.10;;;1.70;;
60098;SDS011;62818;49.394;8.686;2023-06-05T00:52:22;3.43;;;1.50;;
60098;SDS011;62818;49.394;8.686;2023-06-05T00:53:23;3.75;;;1.40;;
60098;SDS011;62818;49.394;8.686;2023-06-05T00:54:25;4.05;;;1.35;;
60098;SDS011;62818;49.394;8.686;2023-06-05T00:55:27;5.68;;;1.40;;
60098;SDS011;62818;49.394;8.686;2023-06-05T00:56:28;5.47;;;1.67;;
60098;SDS011;62818;49.394;8.686;2023-06-05T00:57:28;2.80;;;1.53;;
60098;SDS011;62818;49.394;8.686;2023-06-05T00:58:30;8.45;;;1.60;;
60098;SDS011;62818;49.394;8.686;2023-06-05T00:59:32;3.50;;;1.27;;
60098;SDS011;62818;49.394;8.686;2023-06-05T01:00:34;3.65;;;1.50;;
60098;SDS011;62818;49.394;8.686;2023-06-05T01:02:36;2.30;;;1.70;;
60098;SDS011;62818;49.394;8.686;2023-06-05T01:03:37;1.97;;;1.30;;
60098;SDS011;62818;49.394;8.686;2023-06-05T01:04:39;3.45;;;1.90;;
60098;SDS011;62818;49.394;8.686;2023-06-05T01:05:46;4.10;;;1.50;;
60098;SDS011;62818;49.394;8.686;2023-06-05T01:06:49;2.72;;;1.60;;
60098;SDS011;62818;49.394;8.686;2023-06-05T01:07:51;3.28;;;1.55;;
60098;SDS011;62818;49.394;8.686;2023-06-05T01:09:56;4.07;;;1.60;;
60098;SDS011;62818;49.394;8.686;2023-06-05T01:10:57;10.13;;;1.60;;
60098;SDS011;62818;49.394;8.686;2023-06-05T01:12:08;4.05;;;1.60;;
60098;SDS011;62818;49.394;8.686;2023-06-05T01:13:23;6.05;;;1.55;;
60098;SDS011;62818;49.394;8.686;2023-06-05T01:14:30;1.73;;;1.40;;
60098;SDS011;62818;49.394;8.686;2023-06-05T01:15:34;1.83;;;1.60;;
60098;SDS011;62818;49.394;8.686;2023-06-05T01:16:38;2.03;;;1.35;;
60098;SDS011;62818;49.394;8.686;2023-06-05T01:17:39;3.03;;;1.50;;
60098;SDS011;62818;49.394;8.686;2023-06-05T01:18:40;2.88;;;1.65;;
60098;SDS011;62818;49.394;8.686;2023-06-05T01:19:46;2.58;;;1.65;;
60098;SDS011;62818;49.394;8.686;2023-06-05T01:20:49;5.28;;;1.33;;
60098;SDS011;62818;49.394;8.686;2023-06-05T01:21:51;2.20;;;1.50;;
60098;SDS011;62818;49.394;8.686;2023-06-05T01:22:51;4.93;;;1.88;;
60098;SDS011;62818;49.394;8.686;2023-06-05T01:23:52;3.83;;;1.17;;
60098;SDS011;62818;49.394;8.686;2023-06-05T01:24:53;5.53;;;1.80;;
60098;SDS011;62818;49.394;8.686;2023-06-05T01:25:54;1.73;;;1.50;;
60098;SDS011;62818;49.394;8.686;2023-06-05T01:28:29;7.47;;;2.92;;
60098;SDS011;62818;49.394;8.686;2023-06-05T01:29:34;5.38;;;1.90;;
60098;SDS011;62818;49.394;8.686;2023-06-05T01:32:20;2.70;;;1.75;;
60098;SDS011;62818;49.394;8.686;2023-06-05T01:33:31;3.03;;;1.75;;
60098;SDS011;62818;49.394;8.686;2023-06-05T01:34:43;2.15;;;1.75;;
60098;SDS011;62818;49.394;8.686;2023-06-05T01:35:48;1.70;;;1.40;;
60098;SDS011;62818;49.394;8.686;2023-06-05T01:36:52;4.50;;;1.38;;
60098;SDS011;62818;49.394;8.686;2023-06-05T01:37:55;4.90;;;2.33;;
60098;SDS011;62818;49.394;8.686;2023-06-05T01:38:59;6.03;;;1.83;;
60098;SDS011;62818;49.394;8.686;2023-06-05T01:40:01;2.15;;;1.58;;
60098;SDS011;62818;49.394;8.686;2023-06-05T01:41:06;3.45;;;2.00;;
60098;SDS011;62818;49.394;8.686;2023-06-05T01:42:10;2.65;;;1.80;;
60098;SDS011;62818;49.394;8.686;2023-06-05T01:43:13;3.95;;;1.70;;
60098;SDS011;62818;49.394;8.686;2023-06-05T01:44:15;2.58;;;1.77;;
60098;SDS011;62818;49.394;8.686;2023-06-05T01:45:18;2.95;;;1.70;;
60098;SDS011;62818;49.394;8.686;2023-06-05T01:46:19;4.07;;;1.30;;
60098;SDS011;62818;49.394;8.686;2023-06-05T01:47:22;2.08;;;1.60;;
60098;SDS011;62818;49.394;8.686;2023-06-05T01:49:30;2.42;;;1.70;;
60098;SDS011;62818;49.394;8.686;2023-06-05T01:50:34;4.90;;;2.40;;
60098;SDS011;62818;49.394;8.686;2023-06-05T01:51:36;5.65;;;2.80;;
60098;SDS011;62818;49.394;8.686;2023-06-05T01:52:36;3.30;;;2.10;;
60098;SDS011;62818;49.394;8.686;2023-06-05T01:53:39;4.97;;;1.80;;
60098;SDS011;62818;49.394;8.686;2023-06-05T01:54:40;2.23;;;1.90;;
60098;SDS011;62818;49.394;8.686;2023-06-05T01:55:42;3.60;;;2.30;;
60098;SDS011;62818;49.394;8.686;2023-06-05T01:57:44;5.15;;;1.83;;
60098;SDS011;62818;49.394;8.686;2023-06-05T01:58:46;3.27;;;1.70;;
60098;SDS011;62818;49.394;8.686;2023-06-05T01:59:47;2.97;;;1.70;;
60098;SDS011;62818;49.394;8.686;2023-06-05T02:00:49;2.45;;;1.70;;
60098;SDS011;62818;49.394;8.686;2023-06-05T02:01:50;2.43;;;1.70;;
60098;SDS011;62818;49.394;8.686;2023-06-05T02:02:51;3.35;;;1.85;;
60098;SDS011;62818;49.394;8.686;2023-06-05T02:03:51;4.00;;;1.70;;
60098;SDS011;62818;49.394;8.686;2023-06-05T02:04:53;5.88;;;1.50;;
60098;SDS011;62818;49.394;8.686;2023-06-05T02:05:54;2.20;;;1.67;;
60098;SDS011;62818;49.394;8.686;2023-06-05T02:06:54;2.30;;;1.50;;
60098;SDS011;62818;49.394;8.686;2023-06-05T02:07:55;3.07;;;1.80;;
60098;SDS011;62818;49.394;8.686;2023-06-05T02:08:58;3.20;;;1.50;;
60098;SDS011;62818;49.394;8.686;2023-06-05T02:09:58;8.93;;;1.93;;
60098;SDS011;62818;49.394;8.686;2023-06-05T02:11:01;4.90;;;2.10;;
60098;SDS011;62818;49.394;8.686;2023-06-05T02:12:02;3.67;;;2.00;;
60098;SDS011;62818;49.394;8.686;2023-06-05T02:14:04;10.65;;;1.83;;
60098;SDS011;62818;49.394;8.686;2023-06-05T02:15:12;4.03;;;1.55;;
60098;SDS011;62818;49.394;8.686;2023-06-05T02:16:14;2.63;;;1.63;;
60098;SDS011;62818;49.394;8.686;2023-06-05T02:17:17;4.32;;;1.60;;
60098;SDS011;62818;49.394;8.686;2023-06-05T02:18:17;3.27;;;1.63;;
60098;SDS011;62818;49.394;8.686;2023-06-05T02:19:18;3.23;;;1.80;;
60098;SDS011;62818;49.394;8.686;2023-06-05T02:20:19;4.53;;;1.50;;
60098;SDS011;62818;49.394;8.686;2023-06-05T02:21:23;3.75;;;1.70;;
60098;SDS011;62818;49.394;8.686;2023-06-05T02:22:24;2.33;;;1.70;;
60098;SDS011;62818;49.394;8.686;2023-06-05T02:23:24;2.80;;;1.70;;
60098;SDS011;62818;49.394;8.686;2023-06-05T02:24:25;2.83;;;1.80;;
60098;SDS011;62818;49.394;8.686;2023-06-05T02:25:26;3.55;;;2.10;;
60098;SDS011;62818;49.394;8.686;2023-06-05T02:26:27;2.70;;;1.60;;
60098;SDS011;62818;49.394;8.686;2023-06-05T02:27:27;2.90;;;1.95;;
60098;SDS011;62818;49.394;8.686;2023-06-05T02:28:28;2.00;;;1.60;;
60098;SDS011;62818;49.394;8.686;2023-06-05T02:29:29;2.30;;;1.47;;
60098;SDS011;62818;49.394;8.686;2023-06-05T02:30:29;3.20;;;1.73;;
60098;SDS011;62818;49.394;8.686;2023-06-05T02:31:30;1.65;;;1.50;;
60098;SDS011;62818;49.394;8.686;2023-06-05T02:32:31;4.97;;;1.80;;
60098;SDS011;62818;49.394;8.686;2023-06-05T02:33:31;2.33;;;1.80;;
60098;SDS011;62818;49.394;8.686;2023-06-05T02:34:32;5.80;;;1.60;;
60098;SDS011;62818;49.394;8.686;2023-06-05T02:35:32;4.20;;;1.77;;
60098;SDS011;62818;49.394;8.686;2023-06-05T02:36:33;2.63;;;1.53;;
60098;SDS011;62818;49.394;8.686;2023-06-05T02:37:35;3.17;;;1.60;;
60098;SDS011;62818;49.394;8.686;2023-06-05T02:38:43;2.45;;;1.65;;
60098;SDS011;62818;49.394;8.686;2023-06-05T02:39:44;2.58;;;1.85;;
60098;SDS011;62818;49.394;8.686;2023-06-05T02:40:45;2.67;;;2.00;;
60098;SDS011;62818;49.394;8.686;2023-06-05T02:41:45;4.17;;;1.67;;
60098;SDS011;62818;49.394;8.686;2023-06-05T02:42:46;3.30;;;1.73;;
60098;SDS011;62818;49.394;8.686;2023-06-05T02:43:46;4.63;;;1.60;;
60098;SDS011;62818;49.394;8.686;2023-06-05T02:44:47;1.70;;;1.60;;
60098;SDS011;62818;49.394;8.686;2023-06-05T02:45:48;2.78;;;1.98;;
60098;SDS011;62818;49.394;8.686;2023-06-05T02:46:49;2.80;;;1.70;;
60098;SDS011;62818;49.394;8.686;2023-06-05T02:47:49;3.53;;;1.87;;
60098;SDS011;62818;49.394;8.686;2023-06-05T02:48:50;3.97;;;1.60;;
60098;SDS011;62818;49.394;8.686;2023-06-05T02:49:51;3.92;;;1.67;;
60098;SDS011;62818;49.394;8.686;2023-06-05T02:50:52;3.83;;;1.87;;
60098;SDS011;62818;49.394;8.686;2023-06-05T02:51:52;1.70;;;1.40;;
60098;SDS011;62818;49.394;8.686;2023-06-05T02:52:53;4.33;;;1.70;;
60098;SDS011;62818;49.394;8.686;2023-06-05T02:53:53;4.63;;;1.87;;
60098;SDS011;62818;49.394;8.686;2023-06-05T02:54:54;2.13;;;1.20;;
60098;SDS011;62818;49.394;8.686;2023-06-05T02:55:55;12.70;;;2.13;;
60098;SDS011;62818;49.394;8.686;2023-06-05T02:56:56;2.13;;;1.57;;
60098;SDS011;62818;49.394;8.686;2023-06-05T02:58:00;5.25;;;1.70;;
60098;SDS011;62818;49.394;8.686;2023-06-05T02:59:00;11.03;;;1.77;;
60098;SDS011;62818;49.394;8.686;2023-06-05T03:00:02;3.85;;;1.88;;
60098;SDS011;62818;49.394;8.686;2023-06-05T03:01:07;2.65;;;1.65;;
60098;SDS011;62818;49.394;8.686;2023-06-05T03:02:08;5.47;;;1.60;;
60098;SDS011;62818;49.394;8.686;2023-06-05T03:03:10;2.33;;;1.58;;
60098;SDS011;62818;49.394;8.686;2023-06-05T03:04:12;2.38;;;1.67;;
60098;SDS011;62818;49.394;8.686;2023-06-05T03:05:13;2.20;;;1.70;;
60098;SDS011;62818;49.394;8.686;2023-06-05T03:06:15;3.22;;;1.73;;
60098;SDS011;62818;49.394;8.686;2023-06-05T03:07:17;2.85;;;1.88;;
60098;SDS011;62818;49.394;8.686;2023-06-05T03:08:17;2.97;;;1.67;;
60098;SDS011;62818;49.394;8.686;2023-06-05T03:09:18;3.73;;;1.90;;
60098;SDS011;62818;49.394;8.686;2023-06-05T03:10:19;2.00;;;1.80;;
60098;SDS011;62818;49.394;8.686;2023-06-05T03:11:21;2.63;;;1.50;;
60098;SDS011;62818;49.394;8.686;2023-06-05T03:12:23;6.18;;;2.00;;
60098;SDS011;62818;49.394;8.686;2023-06-05T03:13:24;3.13;;;2.13;;
60098;SDS011;62818;49.394;8.686;2023-06-05T03:14:24;6.27;;;2.10;;
60098;SDS011;62818;49.394;8.686;2023-06-05T03:15:28;7.55;;;2.20;;
60098;SDS011;62818;49.394;8.686;2023-06-05T03:16:29;3.30;;;1.80;;
60098;SDS011;62818;49.394;8.686;2023-06-05T03:17:33;4.68;;;2.10;;
60098;SDS011;62818;49.394;8.686;2023-06-05T03:18:33;4.63;;;2.20;;
60098;SDS011;62818;49.394;8.686;2023-06-05T03:19:34;5.25;;;2.15;;
60098;SDS011;62818;49.394;8.686;2023-06-05T03:20:35;4.00;;;2.27;;
60098;SDS011;62818;49.394;8.686;2023-06-05T03:21:36;3.80;;;2.28;;
60098;SDS011;62818;49.394;8.686;2023-06-05T03:22:39;5.35;;;2.13;;
60098;SDS011;62818;49.394;8.686;2023-06-05T03:23:39;3.00;;;1.80;;
60098;SDS011;62818;49.394;8.686;2023-06-05T03:24:40;5.90;;;2.27;;
60098;SDS011;62818;49.394;8.686;2023-06-05T03:25:41;3.60;;;2.20;;
60098;SDS011;62818;49.394;8.686;2023-06-05T03:26:42;2.77;;;2.20;;
60098;SDS011;62818;49.394;8.686;2023-06-05T03:27:43;4.95;;;2.35;;
60098;SDS011;62818;49.394;8.686;2023-06-05T03:28:44;6.43;;;2.40;;
60098;SDS011;62818;49.394;8.686;2023-06-05T03:29:44;4.00;;;2.30;;
60098;SDS011;62818;49.394;8.686;2023-06-05T03:30:45;3.00;;;2.20;;
60098;SDS011;62818;49.394;8.686;2023-06-05T03:31:46;4.38;;;2.28;;
60098;SDS011;62818;49.394;8.686;2023-06-05T03:32:47;3.67;;;2.00;;
60098;SDS011;62818;49.394;8.686;2023-06-05T03:33:47;5.88;;;2.20;;
60098;SDS011;62818;49.394;8.686;2023-06-05T03:34:48;4.43;;;2.30;;
60098;SDS011;62818;49.394;8.686;2023-06-05T03:35:49;4.80;;;2.10;;
60098;SDS011;62818;49.394;8.686;2023-06-05T03:36:50;7.00;;;2.07;;
60098;SDS011;62818;49.394;8.686;2023-06-05T03:37:51;11.05;;;2.25;;
60098;SDS011;62818;49.394;8.686;2023-06-05T03:38:51;4.77;;;2.10;;
60098;SDS011;62818;49.394;8.686;2023-06-05T03:39:52;5.73;;;2.40;;
60098;SDS011;62818;49.394;8.686;2023-06-05T03:40:52;2.63;;;2.20;;
60098;SDS011;62818;49.394;8.686;2023-06-05T03:41:53;4.73;;;2.20;;
60098;SDS011;62818;49.394;8.686;2023-06-05T03:42:53;4.50;;;2.17;;
60098;SDS011;62818;49.394;8.686;2023-06-05T03:43:54;8.68;;;2.53;;
60098;SDS011;62818;49.394;8.686;2023-06-05T03:44:55;6.07;;;2.33;;
60098;SDS011;62818;49.394;8.686;2023-06-05T03:45:56;5.63;;;2.20;;
60098;SDS011;62818;49.394;8.686;2023-06-05T03:46:56;3.17;;;2.20;;
60098;SDS011;62818;49.394;8.686;2023-06-05T03:47:57;6.88;;;2.40;;
60098;SDS011;62818;49.394;8.686;2023-06-05T03:48:59;5.43;;;2.22;;
60098;SDS011;62818;49.394;8.686;2023-06-05T03:50:05;3.42;;;2.15;;
60098;SDS011;62818;49.394;8.686;2023-06-05T03:51:06;5.97;;;2.10;;
60098;SDS011;62818;49.394;8.686;2023-06-05T03:52:07;9.27;;;2.40;;
60098;SDS011;62818;49.394;8.686;2023-06-05T03:53:10;6.70;;;2.33;;
60098;SDS011;62818;49.394;8.686;2023-06-05T03:54:13;8.52;;;2.80;;
60098;SDS011;62818;49.394;8.686;2023-06-05T03:55:16;6.95;;;2.85;;
60098;SDS011;62818;49.394;8.686;2023-06-05T03:56:17;4.97;;;2.67;;
60098;SDS011;62818;49.394;8.686;2023-06-05T03:57:19;4.57;;;2.20;;
60098;SDS011;62818;49.394;8.686;2023-06-05T03:58:20;6.22;;;2.25;;
60098;SDS011;62818;49.394;8.686;2023-06-05T03:59:21;4.77;;;2.30;;
60098;SDS011;62818;49.394;8.686;2023-06-05T04:00:23;6.43;;;2.55;;
60098;SDS011;62818;49.394;8.686;2023-06-05T04:01:24;7.70;;;2.83;;
60098;SDS011;62818;49.394;8.686;2023-06-05T04:02:25;4.82;;;2.58;;
60098;SDS011;62818;49.394;8.686;2023-06-05T04:03:26;4.43;;;2.60;;
60098;SDS011;62818;49.394;8.686;2023-06-05T04:04:27;5.88;;;2.65;;
60098;SDS011;62818;49.394;8.686;2023-06-05T04:05:30;7.25;;;2.53;;
60098;SDS011;62818;49.394;8.686;2023-06-05T04:06:31;7.77;;;2.30;;
60098;SDS011;62818;49.394;8.686;2023-06-05T04:07:36;6.60;;;2.67;;
60098;SDS011;62818;49.394;8.686;2023-06-05T04:08:37;6.88;;;2.63;;
60098;SDS011;62818;49.394;8.686;2023-06-05T04:09:38;5.77;;;2.77;;
60098;SDS011;62818;49.394;8.686;2023-06-05T04:10:38;7.07;;;2.27;;
60098;SDS011;62818;49.394;8.686;2023-06-05T04:11:41;8.13;;;3.10;;
60098;SDS011;62818;49.394;8.686;2023-06-05T04:12:43;5.35;;;2.58;;
60098;SDS011;62818;49.394;8.686;2023-06-05T04:13:44;4.97;;;2.30;;
60098;SDS011;62818;49.394;8.686;2023-06-05T04:14:44;5.50;;;2.90;;
60098;SDS011;62818;49.394;8.686;2023-06-05T04:15:46;6.68;;;2.78;;
60098;SDS011;62818;49.394;8.686;2023-06-05T04:16:48;4.72;;;2.40;;
60098;SDS011;62818;49.394;8.686;2023-06-05T04:17:49;4.47;;;2.60;;
60098;SDS011;62818;49.394;8.686;2023-06-05T04:18:50;5.22;;;3.00;;
60098;SDS011;62818;49.394;8.686;2023-06-05T04:19:50;4.60;;;2.60;;
60098;SDS011;62818;49.394;8.686;2023-06-05T04:20:51;6.70;;;2.67;;
60098;SDS011;62818;49.394;8.686;2023-06-05T04:21:51;6.20;;;2.40;;
60098;SDS011;62818;49.394;8.686;2023-06-05T04:22:52;6.53;;;2.80;;
60098;SDS011;62818;49.394;8.686;2023-06-05T04:23:52;7.20;;;2.67;;
60098;SDS011;62818;49.394;8.686;2023-06-05T04:24:53;7.88;;;2.80;;
60098;SDS011;62818;49.394;8.686;2023-06-05T04:25:53;6.57;;;2.60;;
60098;SDS011;62818;49.394;8.686;2023-06-05T04:26:54;4.30;;;2.20;;
60098;SDS011;62818;49.394;8.686;2023-06-05T04:27:55;5.70;;;2.43;;
60098;SDS011;62818;49.394;8.686;2023-06-05T04:28:57;7.18;;;2.38;;
60098;SDS011;62818;49.394;8.686;2023-06-05T04:29:57;6.50;;;2.50;;
60098;SDS011;62818;49.394;8.686;2023-06-05T04:30:58;3.70;;;2.50;;
60098;SDS011;62818;49.394;8.686;2023-06-05T04:31:58;4.73;;;2.40;;
60098;SDS011;62818;49.394;8.686;2023-06-05T04:32:59;3.87;;;2.40;;
60098;SDS011;62818;49.394;8.686;2023-06-05T04:33:59;3.83;;;2.30;;
60098;SDS011;62818;49.394;8.686;2023-06-05T04:35:01;3.50;;;2.40;;
60098;SDS011;62818;49.394;8.686;2023-06-05T04:36:03;5.78;;;2.42;;
60098;SDS011;62818;49.394;8.686;2023-06-05T04:37:05;5.30;;;2.30;;
60098;SDS011;62818;49.394;8.686;2023-06-05T04:38:05;4.13;;;2.43;;
60098;SDS011;62818;49.394;8.686;2023-06-05T04:39:06;5.32;;;2.35;;
60098;SDS011;62818;49.394;8.686;2023-06-05T04:40:15;3.53;;;2.20;;
60098;SDS011;62818;49.394;8.686;2023-06-05T04:41:18;3.47;;;2.03;;
60098;SDS011;62818;49.394;8.686;2023-06-05T04:42:18;2.60;;;1.97;;
60098;SDS011;62818;49.394;8.686;2023-06-05T04:43:19;5.15;;;2.40;;
60098;SDS011;62818;49.394;8.686;2023-06-05T04:44:19;9.23;;;2.63;;
60098;SDS011;62818;49.394;8.686;2023-06-05T04:45:20;3.33;;;1.97;;
60098;SDS011;62818;49.394;8.686;2023-06-05T04:46:21;5.28;;;2.10;;
60098;SDS011;62818;49.394;8.686;2023-06-05T04:47:22;4.85;;;2.20;;
60098;SDS011;62818;49.394;8.686;2023-06-05T04:48:23;3.70;;;2.13;;
60098;SDS011;62818;49.394;8.686;2023-06-05T04:49:23;6.87;;;2.47;;
60098;SDS011;62818;49.394;8.686;2023-06-05T04:50:27;3.73;;;2.57;;
60098;SDS011;62818;49.394;8.686;2023-06-05T04:51:33;6.07;;;2.17;;
60098;SDS011;62818;49.394;8.686;2023-06-05T04:52:34;6.70;;;2.63;;
60098;SDS011;62818;49.394;8.686;2023-06-05T04:53:35;4.75;;;2.47;;
60098;SDS011;62818;49.394;8.686;2023-06-05T04:54:35;3.87;;;1.83;;
60098;SDS011;62818;49.394;8.686;2023-06-05T04:55:36;8.83;;;2.30;;
60098;SDS011;62818;49.394;8.686;2023-06-05T04:56:36;7.43;;;2.63;;
60098;SDS011;62818;49.394;8.686;2023-06-05T04:57:38;7.00;;;2.15;;
60098;SDS011;62818;49.394;8.686;2023-06-05T04:58:38;6.17;;;2.37;;
60098;SDS011;62818;49.394;8.686;2023-06-05T04:59:39;4.28;;;2.17;;
60098;SDS011;62818;49.394;8.686;2023-06-05T05:00:40;7.20;;;2.63;;
60098;SDS011;62818;49.394;8.686;2023-06-05T05:01:41;5.28;;;2.25;;
60098;SDS011;62818;49.394;8.686;2023-06-05T05:02:41;8.87;;;2.50;;
60098;SDS011;62818;49.394;8.686;2023-06-05T05:03:43;6.20;;;2.60;;
60098;SDS011;62818;49.394;8.686;2023-06-05T05:04:45;4.65;;;2.50;;
60098;SDS011;62818;49.394;8.686;2023-06-05T05:05:46;4.35;;;2.63;;
60098;SDS011;62818;49.394;8.686;2023-06-05T05:06:47;4.55;;;2.22;;
60098;SDS011;62818;49.394;8.686;2023-06-05T05:07:47;3.23;;;2.40;;
60098;SDS011;62818;49.394;8.686;2023-06-05T05:08:48;6.73;;;2.77;;
60098;SDS011;62818;49.394;8.686;2023-06-05T05:09:49;17.30;;;2.90;;
60098;SDS011;62818;49.394;8.686;2023-06-05T05:10:49;3.93;;;2.33;;
60098;SDS011;62818;49.394;8.686;2023-06-05T05:11:50;6.23;;;2.47;;
60098;SDS011;62818;49.394;8.686;2023-06-05T05:12:50;4.33;;;2.50;;
60098;SDS011;62818;49.394;8.686;2023-06-05T05:13:51;5.50;;;2.57;;
60098;SDS011;62818;49.394;8.686;2023-06-05T05:14:51;7.50;;;2.73;;
60098;SDS011;62818;49.394;8.686;2023-06-05T05:15:52;3.37;;;2.10;;
60098;SDS011;62818;49.394;8.686;2023-06-05T05:16:53;8.57;;;2.37;;
60098;SDS011;62818;49.394;8.686;2023-06-05T05:17:55;3.72;;;2.10;;
60098;SDS011;62818;49.394;8.686;2023-06-05T05:20:00;9.07;;;2.42;;
60098;SDS011;62818;49.394;8.686;2023-06-05T05:21:06;4.43;;;2.67;;
60098;SDS011;62818;49.394;8.686;2023-06-05T05:22:08;4.97;;;2.60;;
60098;SDS011;62818;49.394;8.686;2023-06-05T05:23:08;6.18;;;2.35;;
60098;SDS011;62818;49.394;8.686;2023-06-05T05:24:15;6.68;;;2.97;;
60098;SDS011;62818;49.394;8.686;2023-06-05T05:25:18;8.32;;;3.50;;
60098;SDS011;62818;49.394;8.686;2023-06-05T05:26:21;11.23;;;4.03;;
60098;SDS011;62818;49.394;8.686;2023-06-05T05:27:23;6.55;;;2.80;;
60098;SDS011;62818;49.394;8.686;2023-06-05T05:29:28;6.15;;;2.70;;
60098;SDS011;62818;49.394;8.686;2023-06-05T05:30:32;3.38;;;2.47;;
60098;SDS011;62818;49.394;8.686;2023-06-05T05:31:33;6.10;;;2.53;;
60098;SDS011;62818;49.394;8.686;2023-06-05T05:32:34;4.78;;;2.83;;
60098;SDS011;62818;49.394;8.686;2023-06-05T05:33:38;11.50;;;3.15;;
60098;SDS011;62818;49.394;8.686;2023-06-05T05:34:39;8.68;;;2.70;;
60098;SDS011;62818;49.394;8.686;2023-06-05T05:35:40;11.50;;;2.40;;
60098;SDS011;62818;49.394;8.686;2023-06-05T05:36:41;5.13;;;2.40;;
60098;SDS011;62818;49.394;8.686;2023-06-05T05:37:48;4.90;;;2.70;;
60098;SDS011;62818;49.394;8.686;2023-06-05T05:38:49;5.43;;;2.85;;
60098;SDS011;62818;49.394;8.686;2023-06-05T05:39:54;8.18;;;2.70;;
60098;SDS011;62818;49.394;8.686;2023-06-05T05:40:54;7.83;;;3.20;;
60098;SDS011;62818;49.394;8.686;2023-06-05T05:42:04;7.13;;;2.90;;
60098;SDS011;62818;49.394;8.686;2023-06-05T05:43:13;10.38;;;2.97;;
60098;SDS011;62818;49.394;8.686;2023-06-05T05:44:17;4.55;;;2.38;;
60098;SDS011;62818;49.394;8.686;2023-06-05T05:45:21;4.70;;;2.20;;
60098;SDS011;62818;49.394;8.686;2023-06-05T05:46:21;8.53;;;2.60;;
60098;SDS011;62818;49.394;8.686;2023-06-05T05:47:22;9.10;;;3.10;;
60098;SDS011;62818;49.394;8.686;2023-06-05T05:48:23;14.40;;;7.55;;
60098;SDS011;62818;49.394;8.686;2023-06-05T05:49:23;9.87;;;3.60;;
60098;SDS011;62818;49.394;8.686;2023-06-05T05:50:24;8.53;;;5.50;;
60098;SDS011;62818;49.394;8.686;2023-06-05T05:51:24;4.53;;;2.70;;
60098;SDS011;62818;49.394;8.686;2023-06-05T05:52:25;10.63;;;3.03;;
60098;SDS011;62818;49.394;8.686;2023-06-05T05:53:25;9.40;;;2.40;;
60098;SDS011;62818;49.394;8.686;2023-06-05T05:54:26;4.53;;;2.33;;
60098;SDS011;62818;49.394;8.686;2023-06-05T05:55:27;8.48;;;2.42;;
60098;SDS011;62818;49.394;8.686;2023-06-05T05:56:28;4.50;;;2.30;;
60098;SDS011;62818;49.394;8.686;2023-06-05T05:57:29;5.30;;;2.35;;
60098;SDS011;62818;49.394;8.686;2023-06-05T05:58:30;5.90;;;1.90;;
60098;SDS011;62818;49.394;8.686;2023-06-05T05:59:31;7.72;;;2.45;;
60098;SDS011;62818;49.394;8.686;2023-06-05T06:00:32;6.80;;;2.33;;
60098;SDS011;62818;49.394;8.686;2023-06-05T06:01:34;7.85;;;2.25;;
60098;SDS011;62818;49.394;8.686;2023-06-05T06:02:34;2.80;;;2.10;;
60098;SDS011;62818;49.394;8.686;2023-06-05T06:03:36;7.10;;;2.20;;
60098;SDS011;62818;49.394;8.686;2023-06-05T06:04:38;7.05;;;2.30;;
60098;SDS011;62818;49.394;8.686;2023-06-05T06:05:40;11.02;;;2.22;;
60098;SDS011;62818;49.394;8.686;2023-06-05T06:06:40;11.80;;;2.30;;
60098;SDS011;62818;49.394;8.686;2023-06-05T06:07:41;3.67;;;2.17;;
60098;SDS011;62818;49.394;8.686;2023-06-05T06:09:43;6.03;;;2.28;;
60098;SDS011;62818;49.394;8.686;2023-06-05T06:10:44;7.63;;;2.28;;
60098;SDS011;62818;49.394;8.686;2023-06-05T06:11:46;7.15;;;2.13;;
60098;SDS011;62818;49.394;8.686;2023-06-05T06:12:46;6.80;;;2.30;;
60098;SDS011;62818;49.394;8.686;2023-06-05T06:13:47;5.60;;;2.40;;
60098;SDS011;62818;49.394;8.686;2023-06-05T06:14:48;5.35;;;2.03;;
60098;SDS011;62818;49.394;8.686;2023-06-05T06:15:49;7.10;;;2.50;;
60098;SDS011;62818;49.394;8.686;2023-06-05T06:16:50;5.60;;;2.40;;
60098;SDS011;62818;49.394;8.686;2023-06-05T06:17:51;9.93;;;2.50;;
60098;SDS011;62818;49.394;8.686;2023-06-05T06:18:51;6.33;;;2.60;;
60098;SDS011;62818;49.394;8.686;2023-06-05T06:19:52;9.63;;;3.50;;
60098;SDS011;62818;49.394;8.686;2023-06-05T06:20:53;7.60;;;3.27;;
60098;SDS011;62818;49.394;8.686;2023-06-05T06:21:54;5.73;;;3.03;;
60098;SDS011;62818;49.394;8.686;2023-06-05T06:22:57;11.10;;;2.30;;
60098;SDS011;62818;49.394;8.686;2023-06-05T06:23:58;14.00;;;2.37;;
60098;SDS011;62818;49.394;8.686;2023-06-05T06:24:59;14.27;;;2.30;;